Turvo, Brazil
Current Conditions -  °F | °C
As of 9:00 PM on Wednesday 17 Dec 2014 (Local Time) from SBCM Reporting Station
Broken Clouds Broken Clouds  
Wind Chill: 79°   Ceiling: 8000
Heat Index: 82°   Visibility: 6mi
Dew Point: 72°   Wind: 0mph
Humidity: 78%   Direction: NA
Pressure: 29.77"   Gusts: NA
Location:  28.93°S, 49.68°W
Report Text: SBCM 172300Z 00000KT 9999 SCT040 BKN080 26/22 Q1008
Loading
Personal Weather Stations






























Interactive Weather Map New forecast layout! Learn more

10-Day Weather Forecast

Advertisements
Track Severe Weather on mobile